Time;durP1;ratioP1;P1;durP2;ratioP2;P2;SDS_P1;SDS_P2;PMS_P1;PMS_P2;Temp;Humidity;BMP_temperature;BMP_pressure;BME280_temperature;BME280_humidity;BME280_pressure;Samples;Min_cycle;Max_cycle;Signal;HPM_P1;HPM_P2
2023/03/13 05:22:33;;;;;;;0.65;0.40;;;;;;;12.06;99.72;99349.91;5109179;27;20733;-72
2023/03/13 05:25:19;;;;;;;1.20;0.70;;;;;;;12.11;98.45;99341.25;5109284;28;20031;-73
2023/03/13 05:28:03;;;;;;;1.05;0.70;;;;;;;12.12;97.81;99325.03;5109475;28;20204;-71
2023/03/13 05:30:46;;;;;;;0.80;0.45;;;;;;;12.22;96.73;99338.78;5107480;28;20024;-70
2023/03/13 05:33:32;;;;;;;1.35;0.52;;;;;;;12.26;95.91;99341.88;5105230;28;20039;-70
2023/03/13 05:36:06;;;;;;;0.35;0.35;;;;;;;12.31;95.50;99338.59;5108216;28;20415;-70
2023/03/13 05:38:58;;;;;;;1.98;0.50;;;;;;;12.36;94.90;99338.78;5108368;28;20043;-70
2023/03/13 05:41:44;;;;;;;4.22;0.68;;;;;;;12.38;94.97;99355.41;5108101;28;20071;-69
2023/03/13 05:44:19;;;;;;;2.72;0.40;;;;;;;12.43;94.45;99358.28;5107870;28;20036;-69
2023/03/13 05:47:04;;;;;;;1.98;0.50;;;;;;;12.47;94.27;99348.84;5107522;28;20047;-70
2023/03/13 05:49:31;;;;;;;0.85;0.45;;;;;;;12.48;93.95;99337.13;5108834;28;20055;-71
2023/03/13 05:52:14;;;;;;;1.40;0.50;;;;;;;12.48;94.16;99345.16;5106668;28;20408;-70
2023/03/13 05:54:47;;;;;;;0.80;0.32;;;;;;;12.50;93.56;99340.41;5107458;28;20060;-72
2023/03/13 05:57:15;;;;;;;0.73;0.50;;;;;;;12.57;93.80;99343.06;5108527;28;20081;-71
2023/03/13 06:00:00;;;;;;;0.68;0.50;;;;;;;12.55;93.82;99335.28;5108499;28;20116;-72
2023/03/13 06:02:51;;;;;;;0.40;0.40;;;;;;;12.59;93.81;99333.03;5107067;28;20055;-70
2023/03/13 06:05:22;;;;;;;1.55;0.65;;;;;;;12.54;94.04;99338.97;5107152;28;20396;-72
2023/03/13 06:07:49;;;;;;;0.63;0.40;;;;;;;12.59;93.74;99331.16;5107074;28;20036;-71
2023/03/13 06:10:15;;;;;;;1.48;0.57;;;;;;;12.55;93.69;99324.59;5106875;28;20448;-70
2023/03/13 06:12:40;;;;;;;0.22;0.22;;;;;;;12.60;93.96;99332.00;5108066;28;20119;-69
2023/03/13 06:15:10;;;;;;;0.40;0.32;;;;;;;12.61;93.92;99321.09;5106902;28;20031;-70
2023/03/13 06:18:10;;;;;;;0.38;0.38;;;;;;;12.61;94.08;99329.09;5103843;28;20044;-69
2023/03/13 06:20:36;;;;;;;1.00;0.65;;;;;;;12.59;94.29;99336.50;5107907;28;20553;-71
2023/03/13 06:23:01;;;;;;;1.75;0.40;;;;;;;12.65;94.21;99330.34;5107867;28;20044;-70
2023/03/13 06:25:26;;;;;;;1.73;0.70;;;;;;;12.67;94.35;99352.31;5107970;28;20196;-72
2023/03/13 06:27:52;;;;;;;1.45;0.40;;;;;;;12.61;94.52;99344.31;5108054;28;20047;-69
2023/03/13 06:30:17;;;;;;;0.82;0.40;;;;;;;12.62;94.45;99343.28;5108023;28;20392;-70
2023/03/13 06:32:43;;;;;;;0.47;0.30;;;;;;;12.61;94.96;99341.63;5099358;28;20036;-67
2023/03/13 06:35:08;;;;;;;0.90;0.30;;;;;;;12.63;95.13;99344.91;5093067;28;20370;-70
2023/03/13 06:37:34;;;;;;;1.25;0.30;;;;;;;12.64;95.21;99351.91;5094251;28;20051;-71
2023/03/13 06:39:59;;;;;;;2.47;0.75;;;;;;;12.63;95.20;99353.75;5094229;28;20035;-70
2023/03/13 06:42:25;;;;;;;0.73;0.30;;;;;;;12.63;95.45;99345.72;5093729;28;20064;-71
2023/03/13 06:44:50;;;;;;;0.93;0.45;;;;;;;12.61;95.70;99341.63;5094065;28;20447;-68
2023/03/13 06:47:16;;;;;;;0.30;0.30;;;;;;;12.57;96.00;99337.72;5094153;28;20097;-69
2023/03/13 06:49:41;;;;;;;0.35;0.35;;;;;;;12.59;96.20;99349.88;5094087;28;20036;-70
2023/03/13 06:52:07;;;;;;;1.38;0.70;;;;;;;12.64;95.77;99338.53;5092680;28;20067;-71
2023/03/13 06:54:32;;;;;;;0.65;0.45;;;;;;;12.60;96.29;99346.16;5092573;28;20044;-73
2023/03/13 06:56:57;;;;;;;1.15;0.80;;;;;;;12.68;95.53;99342.44;5093669;28;20040;-72
2023/03/13 06:59:23;;;;;;;0.47;0.38;;;;;;;12.64;96.07;99357.25;5093854;28;20047;-73
2023/03/13 07:01:48;;;;;;;1.33;0.68;;;;;;;12.64;95.34;99319.84;5092366;28;20032;-70
2023/03/13 07:04:15;;;;;;;0.93;0.70;;;;;;;12.75;94.65;99341.41;5093527;28;20047;-70
2023/03/13 07:06:40;;;;;;;1.85;0.73;;;;;;;12.75;94.78;99325.38;5093584;28;20092;-70
2023/03/13 07:09:06;;;;;;;0.50;0.43;;;;;;;12.76;94.65;99327.00;5093689;28;20043;-70
2023/03/13 07:11:31;;;;;;;0.55;0.55;;;;;;;12.75;94.98;99328.03;5093460;28;20402;-72
2023/03/13 07:14:00;;;;;;;0.70;0.60;;;;;;;12.78;94.69;99313.47;5093185;28;20040;-70
2023/03/13 07:16:25;;;;;;;4.10;0.60;;;;;;;12.80;94.85;99324.75;5093330;28;20476;-73
2023/03/13 07:18:51;;;;;;;1.58;0.68;;;;;;;12.87;94.63;99316.72;5093473;28;20040;-69
2023/03/13 07:21:16;;;;;;;0.65;0.35;;;;;;;12.92;93.91;99312.38;5092943;28;20039;-51
2023/03/13 07:23:42;;;;;;;0.57;0.57;;;;;;;13.00;93.59;99311.31;5092977;28;20036;-53
2023/03/13 07:26:11;;;;;;;0.88;0.52;;;;;;;13.05;93.29;99319.53;5093221;28;20389;-54
2023/03/13 07:28:37;;;;;;;1.10;0.45;;;;;;;13.02;93.23;99298.56;5093211;28;20032;-64
2023/03/13 07:31:14;;;;;;;0.55;0.55;;;;;;;13.13;92.67;99297.06;5091854;28;20131;-63
2023/03/13 07:33:40;;;;;;;1.00;0.70;;;;;;;13.21;92.26;99297.69;5092950;28;20032;-65
2023/03/13 07:36:06;;;;;;;0.90;0.50;;;;;;;13.21;91.85;99289.66;5093118;28;20059;-64
2023/03/13 07:38:32;;;;;;;0.50;0.50;;;;;;;13.29;91.78;99296.59;5092941;28;20531;-65
2023/03/13 07:40:57;;;;;;;1.38;0.50;;;;;;;13.28;91.58;99290.44;5092963;28;20036;-65
2023/03/13 07:43:24;;;;;;;0.35;0.35;;;;;;;13.34;91.84;99307.50;5092259;28;20042;-65
2023/03/13 07:45:50;;;;;;;1.40;0.90;;;;;;;13.40;91.18;99295.13;5091782;28;20032;-64
2023/03/13 07:48:16;;;;;;;1.52;0.80;;;;;;;13.47;90.74;99279.84;5092694;28;20028;-63
2023/03/13 07:50:41;;;;;;;0.50;0.45;;;;;;;13.53;90.07;99293.19;5092991;28;20408;-64
2023/03/13 07:53:07;;;;;;;0.60;0.30;;;;;;;13.64;89.99;99296.22;5092690;28;20111;-64
2023/03/13 07:55:33;;;;;;;0.32;0.32;;;;;;;13.65;89.29;99293.31;5092695;28;20040;-64
2023/03/13 07:57:58;;;;;;;0.95;0.70;;;;;;;13.77;88.19;99291.59;5092585;28;20043;-63
2023/03/13 08:00:23;;;;;;;1.98;0.50;;;;;;;13.84;88.32;99292.34;5092655;28;20067;-66
2023/03/13 08:02:49;;;;;;;1.85;0.50;;;;;;;13.92;88.76;99301.16;5092334;28;20032;-66
2023/03/13 08:05:14;;;;;;;0.32;0.30;;;;;;;14.02;87.65;99304.19;5092667;28;20503;-65
2023/03/13 08:07:42;;;;;;;1.15;0.40;;;;;;;14.09;87.71;99304.94;5092433;28;20051;-66
2023/03/13 08:10:08;;;;;;;1.30;0.50;;;;;;;14.13;86.62;99314.16;5092527;28;20036;-64
2023/03/13 08:12:33;;;;;;;1.08;0.47;;;;;;;14.18;86.23;99292.91;5092127;28;20040;-60
2023/03/13 08:14:59;;;;;;;0.57;0.43;;;;;;;14.19;86.05;99297.22;5092624;28;20043;-59
2023/03/13 08:17:24;;;;;;;0.50;0.30;;;;;;;14.27;85.87;99313.00;5092364;28;20123;-60
2023/03/13 08:19:49;;;;;;;1.00;0.70;;;;;;;14.33;85.32;99304.09;5092316;28;20032;-61
2023/03/13 08:22:15;;;;;;;0.43;0.32;;;;;;;14.34;85.12;99307.59;5091946;28;20459;-62
2023/03/13 08:24:40;;;;;;;1.50;0.70;;;;;;;14.45;83.93;99298.84;5092185;28;20156;-60
2023/03/13 08:27:05;;;;;;;1.23;0.70;;;;;;;14.48;84.18;99302.97;5092050;28;20062;-61
2023/03/13 08:29:31;;;;;;;2.58;0.93;;;;;;;14.47;84.45;99309.34;5092215;28;20112;-61
2023/03/13 08:31:56;;;;;;;0.55;0.50;;;;;;;14.45;83.96;99296.16;5092096;28;20032;-62
2023/03/13 08:34:22;;;;;;;1.23;0.73;;;;;;;14.40;83.72;99302.16;5091882;28;20040;-63
2023/03/13 08:36:47;;;;;;;0.65;0.45;;;;;;;14.40;84.35;99304.84;5091931;28;20036;-61
2023/03/13 08:39:15;;;;;;;0.55;0.50;;;;;;;14.29;84.84;99299.41;5092019;28;20040;-61
2023/03/13 08:41:41;;;;;;;;;;;;;;;14.32;84.98;99299.78;5092282;28;20032;-60
2023/03/13 08:44:09;;;;;;;0.57;0.40;;;;;;;14.31;84.76;99316.06;5091545;28;19939;-61
2023/03/13 08:46:35;;;;;;;1.17;0.70;;;;;;;14.29;85.06;99289.50;5091894;28;20054;-59
2023/03/13 08:49:02;;;;;;;0.98;0.70;;;;;;;14.29;84.99;99292.19;5091869;28;20032;-58
2023/03/13 08:51:28;;;;;;;3.10;0.65;;;;;;;14.34;83.87;99284.31;5091763;28;20400;-60
2023/03/13 08:53:57;;;;;;;0.40;0.30;;;;;;;14.39;84.08;99278.28;5091355;28;20035;-60
2023/03/13 08:56:29;;;;;;;0.65;0.55;;;;;;;14.45;83.17;99281.94;5091452;28;20043;-62
2023/03/13 08:58:57;;;;;;;1.23;0.60;;;;;;;14.50;82.97;99279.44;5091646;28;20040;-60
2023/03/13 09:01:24;;;;;;;2.83;0.70;;;;;;;14.52;82.77;99283.53;5091607;28;20162;-61
2023/03/13 09:03:50;;;;;;;2.72;0.73;;;;;;;14.53;83.04;99287.03;5089927;28;20405;-62
2023/03/13 09:06:16;;;;;;;0.50;0.50;;;;;;;14.48;83.82;99286.91;5091535;28;20073;-58
2023/03/13 09:08:41;;;;;;;0.95;0.40;;;;;;;14.48;83.29;99279.69;5091484;28;20043;-63
2023/03/13 09:11:13;;;;;;;0.35;0.35;;;;;;;14.51;83.26;99271.19;5091600;28;20032;-60
2023/03/13 09:13:41;;;;;;;0.40;0.40;;;;;;;14.67;82.41;99269.78;5091137;28;20032;-61
2023/03/13 09:16:16;;;;;;;0.60;0.50;;;;;;;14.83;81.15;99276.41;5091554;28;20111;-60
2023/03/13 09:18:42;;;;;;;1.27;0.47;;;;;;;15.03;80.37;99263.56;5091553;28;20497;-63
2023/03/13 09:21:10;;;;;;;0.45;0.45;;;;;;;15.35;79.84;99249.94;5091246;28;20063;-61
2023/03/13 09:23:36;;;;;;;0.47;0.40;;;;;;;15.70;77.07;99263.50;5091069;28;20748;-61
2023/03/13 09:26:02;;;;;;;0.55;0.50;;;;;;;16.02;74.92;99261.31;5091273;28;20039;-61
2023/03/13 09:28:28;;;;;;;0.77;0.50;;;;;;;16.26;72.48;99262.97;5091359;28;20557;-63
2023/03/13 09:30:54;;;;;;;1.48;0.50;;;;;;;16.34;71.14;99251.06;5091406;28;20037;-63
2023/03/13 09:33:22;;;;;;;0.30;0.30;;;;;;;16.56;71.37;99251.25;5089690;28;20128;-62
2023/03/13 09:35:51;;;;;;;0.63;0.50;;;;;;;16.58;71.33;99259.91;5091269;28;20153;-61
2023/03/13 09:38:19;;;;;;;2.88;0.90;;;;;;;16.78;70.08;99249.63;5091244;28;20488;-63
2023/03/13 09:40:48;;;;;;;1.33;0.60;;;;;;;16.86;69.20;99251.13;5091242;28;20198;-62
2023/03/13 09:43:31;;;;;;;1.25;0.80;;;;;;;17.24;67.69;99241.63;5090839;28;20032;-63
2023/03/13 09:46:01;;;;;;;0.98;0.60;;;;;;;17.42;65.80;99246.00;5091213;28;20090;-63
2023/03/13 09:48:36;;;;;;;1.23;0.68;;;;;;;17.38;66.42;99248.34;5091119;28;20501;-63
2023/03/13 09:51:05;;;;;;;1.17;0.60;;;;;;;17.24;67.32;99255.91;5091118;28;20028;-63
2023/03/13 09:53:41;;;;;;;0.77;0.50;;;;;;;17.03;66.84;99243.94;5090812;28;20509;-63
2023/03/13 09:56:15;;;;;;;2.13;1.13;;;;;;;17.06;67.78;99240.75;5091013;28;20075;-64
2023/03/13 09:58:52;;;;;;;1.23;0.60;;;;;;;16.97;68.15;99236.81;5091069;28;20074;-63
2023/03/13 10:01:25;;;;;;;1.05;0.70;;;;;;;16.86;66.95;99240.34;5089588;28;20495;-63
2023/03/13 10:04:18;;;;;;;1.55;0.52;;;;;;;16.72;68.36;99233.63;5090714;28;20062;-63
2023/03/13 10:06:44;;;;;;;0.90;0.68;;;;;;;16.67;68.42;99226.22;5090912;28;20039;-64
2023/03/13 10:09:29;;;;;;;0.87;0.60;;;;;;;16.68;68.72;99235.09;5094386;28;20090;-65
2023/03/13 10:12:17;;;;;;;1.15;0.65;;;;;;;16.67;69.57;99228.91;5094801;28;20040;-65
2023/03/13 10:14:58;;;;;;;0.65;0.63;;;;;;;16.66;69.24;99223.78;5094935;28;20070;-63
2023/03/13 10:17:34;;;;;;;1.15;0.60;;;;;;;16.69;69.48;99223.28;5094681;28;20028;-65
2023/03/13 10:20:16;;;;;;;1.30;0.60;;;;;;;16.77;69.39;99215.72;5093220;28;20032;-65
2023/03/13 10:22:45;;;;;;;1.08;0.90;;;;;;;16.81;69.16;99211.47;5094420;28;20111;-62
2023/03/13 10:25:31;;;;;;;0.90;0.75;;;;;;;16.93;68.50;99224.09;5093236;28;20036;-65
2023/03/13 10:27:57;;;;;;;0.90;0.68;;;;;;;17.03;67.49;99202.78;5094600;28;20093;-65
2023/03/13 10:30:29;;;;;;;1.30;0.80;;;;;;;17.23;65.80;99207.72;5093182;28;20576;-62
2023/03/13 10:33:13;;;;;;;0.80;0.70;;;;;;;17.29;65.47;99204.88;5094090;28;20032;-63
2023/03/13 10:35:43;;;;;;;0.45;0.40;;;;;;;17.36;65.80;99207.41;5094300;28;20043;-62
2023/03/13 10:38:10;;;;;;;1.13;0.80;;;;;;;17.35;66.37;99201.22;5094288;28;20032;-64
2023/03/13 10:40:36;;;;;;;0.77;0.63;;;;;;;17.30;67.36;99187.66;5094174;28;20473;-62
2023/03/13 10:43:12;;;;;;;1.15;0.60;;;;;;;17.29;67.00;99190.59;5094246;28;20582;-64
2023/03/13 10:45:37;;;;;;;2.03;0.80;;;;;;;17.19;66.57;99176.94;5094143;28;20374;-61
2023/03/13 10:48:12;;;;;;;0.77;0.70;;;;;;;17.30;66.35;99166.13;5094092;28;20043;-62
2023/03/13 10:50:42;;;;;;;1.05;0.63;;;;;;;17.45;65.00;99164.75;5094046;28;20039;-64
2023/03/13 10:53:25;;;;;;;0.63;0.63;;;;;;;18.22;62.35;99145.19;5093627;28;20105;-64
2023/03/13 10:56:02;;;;;;;0.65;0.63;;;;;;;19.16;58.44;99140.34;5094005;28;20028;-63
2023/03/13 10:58:40;;;;;;;1.17;0.88;;;;;;;19.88;55.74;99147.13;5094190;28;20043;-64
2023/03/13 11:01:22;;;;;;;0.52;0.50;;;;;;;20.56;54.13;99141.84;5093741;28;20105;-64
2023/03/13 11:03:49;;;;;;;1.95;0.82;;;;;;;21.33;50.72;99138.25;5093525;28;20131;-62
2023/03/13 11:06:30;;;;;;;1.60;0.70;;;;;;;21.88;51.03;99117.59;5092247;28;20500;-65
2023/03/13 11:09:09;;;;;;;0.93;0.60;;;;;;;22.42;47.46;99119.63;5093777;28;20051;-64
2023/03/13 11:11:49;;;;;;;0.55;0.55;;;;;;;21.89;47.10;99116.50;5093758;28;20500;-64
2023/03/13 11:14:19;;;;;;;1.05;0.80;;;;;;;21.58;48.52;99101.38;5093213;28;20032;-63
2023/03/13 11:16:48;;;;;;;1.15;0.70;;;;;;;21.53;48.69;99099.50;5093528;28;20101;-63
2023/03/13 11:19:43;;;;;;;0.80;0.80;;;;;;;22.25;49.35;99092.03;5093303;28;20047;-62
2023/03/13 11:22:23;;;;;;;1.88;0.60;;;;;;;23.04;47.34;99092.19;5093098;28;20040;-64
2023/03/13 11:24:54;;;;;;;0.75;0.60;;;;;;;22.78;45.35;99078.75;5093424;28;20100;-63
2023/03/13 11:27:32;;;;;;;0.93;0.60;;;;;;;23.10;44.58;99074.75;5093233;28;20556;-63
2023/03/13 11:30:18;;;;;;;1.08;0.63;;;;;;;23.44;44.64;99066.56;5093293;28;20136;-63
2023/03/13 11:32:59;;;;;;;1.53;0.60;;;;;;;23.71;43.78;99058.72;5093024;28;20040;-63
2023/03/13 11:35:43;;;;;;;1.45;0.85;;;;;;;24.10;43.47;99060.44;5093029;28;20329;-62
2023/03/13 11:38:27;;;;;;;1.42;0.60;;;;;;;24.61;42.84;99047.00;5093205;28;20028;-63
2023/03/13 11:41:08;;;;;;;0.65;0.52;;;;;;;24.35;42.17;99045.75;5093010;28;20156;-62
2023/03/13 11:43:55;;;;;;;1.00;0.80;;;;;;;24.87;41.97;99036.56;5092731;28;20038;-62
2023/03/13 11:46:20;;;;;;;;;;;;;;;24.95;41.96;99031.53;5093287;28;20131;-63
2023/03/13 11:49:01;;;;;;;0.63;0.63;;;;;;;24.55;41.53;99028.34;5092925;28;20037;-64
2023/03/13 11:51:31;;;;;;;1.08;0.40;;;;;;;24.13;40.80;99013.66;5092802;28;20074;-64
2023/03/13 11:54:16;;;;;;;0.80;0.45;;;;;;;23.24;43.05;99010.53;5092550;28;20032;-64
2023/03/13 11:57:11;;;;;;;0.80;0.57;;;;;;;23.83;42.50;98990.34;5092718;28;20043;-63
2023/03/13 11:59:45;;;;;;;0.47;0.40;;;;;;;24.68;41.69;98991.38;5092780;28;20032;-65
2023/03/13 12:02:18;;;;;;;1.20;0.68;;;;;;;24.88;41.08;98983.69;5092523;28;20074;-64
2023/03/13 12:04:52;;;;;;;1.30;0.55;;;;;;;24.90;41.17;98958.88;5092661;28;20043;-65
2023/03/13 12:07:34;;;;;;;1.13;0.47;;;;;;;24.54;41.09;98962.19;5092603;28;20040;-65
2023/03/13 12:10:02;;;;;;;0.90;0.75;;;;;;;24.24;41.76;98952.53;5092421;28;20059;-65
2023/03/13 12:12:48;;;;;;;0.63;0.40;;;;;;;23.98;42.28;98952.09;5092152;28;20507;-64
2023/03/13 12:15:25;;;;;;;0.90;0.60;;;;;;;24.64;41.07;98948.41;5092292;28;20040;-66
2023/03/13 12:18:04;;;;;;;1.48;0.50;;;;;;;24.59;42.12;98934.91;5092443;28;20038;-65
2023/03/13 12:21:00;;;;;;;1.45;0.70;;;;;;;25.20;40.77;98940.44;5092261;28;20044;-64
2023/03/13 12:23:38;;;;;;;0.65;0.43;;;;;;;25.94;39.67;98930.22;5090711;28;20031;-65
2023/03/13 12:26:16;;;;;;;1.25;0.65;;;;;;;26.43;38.19;98914.97;5092283;28;20481;-66
2023/03/13 12:29:03;;;;;;;0.50;0.40;;;;;;;25.64;39.38;98907.94;5092213;28;20039;-65
2023/03/13 12:31:51;;;;;;;0.70;0.52;;;;;;;25.36;39.35;98917.22;5091435;28;20040;-64
2023/03/13 12:34:40;;;;;;;0.60;0.60;;;;;;;24.76;40.69;98903.59;5091875;28;20036;-64
2023/03/13 12:37:17;;;;;;;1.05;0.63;;;;;;;24.07;41.85;98897.84;5091983;28;20043;-63
2023/03/13 12:39:50;;;;;;;0.63;0.57;;;;;;;23.37;43.60;98890.31;5092048;28;20028;-65
2023/03/13 12:42:28;;;;;;;0.85;0.70;;;;;;;23.23;43.78;98894.81;5091994;28;20488;-65
2023/03/13 12:44:56;;;;;;;0.88;0.52;;;;;;;22.73;43.96;98875.22;5092122;28;20503;-62
2023/03/13 12:48:00;;;;;;;0.73;0.60;;;;;;;22.89;44.36;98878.63;5091631;28;20441;-65
2023/03/13 12:50:37;;;;;;;0.57;0.43;;;;;;;23.21;43.83;98864.41;5091647;28;20075;-64
2023/03/13 12:53:06;;;;;;;;;;;;;;;23.68;42.78;98838.34;5092020;28;20115;-65
2023/03/13 12:56:01;;;;;;;1.00;0.55;;;;;;;23.83;41.85;98849.78;5091523;28;19915;-64
2023/03/13 12:58:46;;;;;;;0.73;0.63;;;;;;;23.87;41.72;98838.34;5088438;28;20090;-64
2023/03/13 13:01:29;;;;;;;1.27;0.60;;;;;;;23.41;42.38;98820.72;5073993;28;20036;-64
2023/03/13 13:03:59;;;;;;;1.25;0.80;;;;;;;23.01;43.70;98813.84;5071227;28;20048;-65
2023/03/13 13:06:47;;;;;;;1.10;0.60;;;;;;;23.13;44.06;98830.56;5071289;28;20445;-65
2023/03/13 13:09:27;;;;;;;0.52;0.52;;;;;;;22.98;44.84;98815.25;5071259;28;20148;-65
2023/03/13 13:11:55;;;;;;;0.90;0.60;;;;;;;22.77;45.06;98816.56;5071299;28;20043;-65
2023/03/13 13:14:20;;;;;;;0.60;0.40;;;;;;;22.64;44.65;98801.75;5070951;28;20048;-65
2023/03/13 13:16:53;;;;;;;0.40;0.40;;;;;;;22.33;44.77;98798.53;5071264;28;20044;-64
2023/03/13 13:19:41;;;;;;;1.38;0.60;;;;;;;22.70;45.83;98794.38;5071213;28;20075;-64
2023/03/13 13:22:37;;;;;;;0.73;0.50;;;;;;;23.10;45.15;98792.31;5070939;28;20086;-64
2023/03/13 13:25:08;;;;;;;0.35;0.35;;;;;;;23.18;43.81;98789.75;5071240;28;20401;-64
2023/03/13 13:27:34;;;;;;;1.05;0.57;;;;;;;23.64;43.12;98778.31;5071096;28;20032;-64
2023/03/13 13:30:02;;;;;;;1.65;0.55;;;;;;;24.24;42.65;98772.19;5071308;28;20089;-64
2023/03/13 13:32:31;;;;;;;1.45;0.40;;;;;;;24.87;40.20;98774.31;5070816;28;20395;-64
2023/03/13 13:35:05;;;;;;;0.40;0.40;;;;;;;25.11;39.25;98758.63;5071168;28;20094;-66
2023/03/13 13:37:32;;;;;;;1.08;0.55;;;;;;;25.23;39.08;98754.53;5070870;28;20056;-65
2023/03/13 13:40:18;;;;;;;0.45;0.40;;;;;;;25.96;38.13;98743.34;5071114;28;20039;-66
2023/03/13 13:43:04;;;;;;;1.30;0.80;;;;;;;25.38;38.40;98733.22;5071895;28;20481;-65
2023/03/13 13:45:37;;;;;;;0.70;0.50;;;;;;;25.71;37.60;98730.28;5074932;28;20294;-64
2023/03/13 13:48:27;;;;;;;0.57;0.40;;;;;;;25.66;37.57;98730.41;5074888;28;20354;-64
2023/03/13 13:51:09;;;;;;;1.10;0.57;;;;;;;25.80;38.18;98724.91;5074807;28;20044;-64
2023/03/13 13:54:02;;;;;;;2.22;0.40;;;;;;;26.03;37.29;98712.09;5074543;28;20558;-64
2023/03/13 13:56:27;;;;;;;0.43;0.20;;;;;;;25.93;37.26;98702.22;5074698;28;20481;-63
2023/03/13 13:59:24;;;;;;;0.40;0.30;;;;;;;26.03;37.25;98701.97;5074760;28;20063;-64
2023/03/13 14:02:23;;;;;;;0.38;0.32;;;;;;;24.99;38.40;98697.56;5074746;28;20115;-63
2023/03/13 14:04:59;;;;;;;0.30;0.30;;;;;;;24.86;38.85;98680.94;5074900;28;20051;-64
2023/03/13 14:07:40;;;;;;;0.68;0.30;;;;;;;24.26;39.43;98691.09;5074485;28;20033;-64
2023/03/13 14:10:14;;;;;;;0.20;0.20;;;;;;;23.85;40.33;98680.91;5074522;28;20047;-64
2023/03/13 14:12:51;;;;;;;0.50;0.50;;;;;;;23.45;41.30;98675.00;5074075;28;20091;-66
2023/03/13 14:15:40;;;;;;;0.70;0.40;;;;;;;23.17;41.59;98674.09;5074436;28;20036;-65
2023/03/13 14:18:20;;;;;;;0.40;0.30;;;;;;;22.73;42.33;98669.75;5074313;28;20516;-66
2023/03/13 14:20:48;;;;;;;0.63;0.50;;;;;;;22.81;42.72;98653.91;5074179;28;20085;-65
2023/03/13 14:23:13;;;;;;;0.85;0.57;;;;;;;22.53;42.83;98653.72;5073876;28;20041;-65
2023/03/13 14:25:43;;;;;;;0.30;0.30;;;;;;;22.54;43.63;98638.25;5074379;28;20051;-65
2023/03/13 14:28:25;;;;;;;0.57;0.32;;;;;;;22.54;43.23;98632.81;5074119;28;20485;-66
2023/03/13 14:30:54;;;;;;;0.68;0.55;;;;;;;22.20;43.50;98622.91;5074171;28;20420;-64
2023/03/13 14:33:20;;;;;;;0.68;0.47;;;;;;;22.12;44.09;98612.72;5073683;28;20460;-64
2023/03/13 14:35:47;;;;;;;0.40;0.40;;;;;;;22.14;44.88;98610.50;5074061;28;20051;-65
2023/03/13 14:38:23;;;;;;;0.30;0.30;;;;;;;22.00;44.31;98607.66;5074275;28;20366;-65
2023/03/13 14:40:50;;;;;;;0.32;0.32;;;;;;;21.94;44.29;98600.66;5074061;28;20541;-65
2023/03/13 14:43:34;;;;;;;0.38;0.38;;;;;;;21.84;44.31;98588.03;5073476;28;20085;-65
2023/03/13 14:46:13;;;;;;;0.30;0.30;;;;;;;21.67;44.02;98566.78;5073899;28;20095;-65
2023/03/13 14:48:39;;;;;;;1.02;0.40;;;;;;;21.68;45.01;98567.59;5073691;28;20492;-65
2023/03/13 14:51:10;;;;;;;1.30;0.30;;;;;;;21.66;45.29;98564.38;5073776;28;20049;-63
2023/03/13 14:53:36;;;;;;;0.43;0.25;;;;;;;21.70;45.24;98570.00;5072900;28;20044;-66
2023/03/13 14:56:17;;;;;;;0.63;0.40;;;;;;;21.66;45.28;98551.63;5073775;28;20043;-64
2023/03/13 14:58:44;;;;;;;0.43;0.30;;;;;;;21.62;45.50;98544.34;5073543;28;20064;-63
2023/03/13 15:01:24;;;;;;;0.37;0.20;;;;;;;21.63;45.19;98538.66;5073754;28;20036;-65
2023/03/13 15:03:51;;;;;;;0.32;0.32;;;;;;;21.59;45.58;98521.38;5073378;28;20343;-64
2023/03/13 15:06:19;;;;;;;0.88;0.50;;;;;;;21.52;45.78;98533.63;5073540;28;20074;-65
2023/03/13 15:08:47;;;;;;;0.35;0.35;;;;;;;21.53;45.84;98517.09;5073496;28;20094;-65
2023/03/13 15:11:35;;;;;;;0.50;0.50;;;;;;;21.58;46.46;98508.09;5073383;28;20032;-65
2023/03/13 15:14:00;;;;;;;;;;;;;;;21.63;46.03;98502.63;5073467;28;20040;-64
2023/03/13 15:16:27;;;;;;;0.75;0.40;;;;;;;21.63;46.71;98505.31;5073282;28;19915;-65
2023/03/13 15:18:53;;;;;;;1.13;0.77;;;;;;;21.68;46.37;98494.44;5073250;28;20128;-65
2023/03/13 15:21:28;;;;;;;0.60;0.30;;;;;;;21.64;46.26;98483.34;5071998;28;20103;-65
2023/03/13 15:24:00;;;;;;;0.85;0.60;;;;;;;21.72;46.10;98471.09;5072895;28;20044;-65
2023/03/13 15:26:26;;;;;;;0.63;0.35;;;;;;;21.64;46.07;98460.88;5073139;28;20469;-65
2023/03/13 15:28:52;;;;;;;0.52;0.40;;;;;;;21.66;46.30;98448.69;5073096;28;20115;-65
2023/03/13 15:31:22;;;;;;;0.50;0.40;;;;;;;21.65;46.76;98433.53;5073122;28;20040;-64
2023/03/13 15:33:49;;;;;;;1.00;0.40;;;;;;;21.61;45.98;98440.59;5072620;28;20040;-65
2023/03/13 15:36:14;;;;;;;0.65;0.35;;;;;;;21.60;46.40;98427.34;5072937;28;20032;-65
2023/03/13 15:38:40;;;;;;;0.40;0.30;;;;;;;21.55;46.14;98408.44;5072786;28;20424;-65
2023/03/13 15:41:08;;;;;;;0.80;0.60;;;;;;;21.53;45.80;98405.22;5072836;28;20033;-64
2023/03/13 15:43:33;;;;;;;1.98;0.60;;;;;;;21.59;45.78;98412.19;5072447;28;20036;-64
2023/03/13 15:46:00;;;;;;;1.10;0.38;;;;;;;21.54;46.23;98399.53;5072744;28;20036;-64
2023/03/13 15:48:28;;;;;;;0.82;0.50;;;;;;;21.58;45.85;98395.16;5072717;28;20059;-64
2023/03/13 15:50:54;;;;;;;;;;;;;;;21.53;46.32;98387.06;5072984;28;20047;-64
2023/03/13 15:53:25;;;;;;;0.70;0.40;;;;;;;21.51;46.10;98388.44;5072599;28;20237;-64
2023/03/13 15:55:53;;;;;;;0.35;0.30;;;;;;;21.56;46.39;98388.38;5072490;28;20044;-64
2023/03/13 15:58:18;;;;;;;0.35;0.28;;;;;;;21.52;45.77;98381.94;5072420;28;20036;-64
2023/03/13 16:00:44;;;;;;;0.38;0.35;;;;;;;21.45;45.75;98393.09;5072466;28;20056;-64
2023/03/13 16:03:18;;;;;;;0.40;0.22;;;;;;;21.27;45.75;98362.16;5071960;28;20040;-62
2023/03/13 16:05:46;;;;;;;0.70;0.38;;;;;;;21.29;46.19;98376.25;5071443;28;20055;-64
2023/03/13 16:08:17;;;;;;;1.17;0.40;;;;;;;21.22;46.21;98367.63;5072238;28;20103;-64
2023/03/13 16:10:43;;;;;;;1.02;0.50;;;;;;;21.22;47.00;98374.94;5072197;28;20116;-63
2023/03/13 16:13:09;;;;;;;2.92;0.40;;;;;;;21.12;46.74;98365.03;5071813;28;20082;-64
2023/03/13 16:15:35;;;;;;;0.17;0.17;;;;;;;21.06;47.30;98368.88;5072048;28;20462;-64
2023/03/13 16:18:01;;;;;;;2.38;0.38;;;;;;;21.05;47.15;98372.69;5072057;28;20230;-64
2023/03/13 16:20:27;;;;;;;0.40;0.32;;;;;;;20.96;47.55;98364.38;5071895;28;20135;-65
2023/03/13 16:22:54;;;;;;;0.50;0.40;;;;;;;20.98;47.29;98355.97;5071689;28;20086;-64
2023/03/13 16:25:20;;;;;;;0.98;0.47;;;;;;;20.90;47.52;98356.59;5071953;28;20072;-64
2023/03/13 16:27:45;;;;;;;0.40;0.40;;;;;;;20.88;47.81;98353.38;5071921;28;20043;-64
2023/03/13 16:30:16;;;;;;;0.38;0.38;;;;;;;20.84;47.88;98353.94;5071670;28;20052;-64
2023/03/13 16:32:42;;;;;;;0.75;0.57;;;;;;;20.78;48.55;98346.97;5071496;28;20047;-64
2023/03/13 16:35:07;;;;;;;0.63;0.40;;;;;;;20.77;48.58;98345.38;5071665;28;20119;-65
2023/03/13 16:37:32;;;;;;;0.63;0.50;;;;;;;20.70;48.70;98333.28;5071736;28;20554;-61
2023/03/13 16:39:58;;;;;;;0.95;0.60;;;;;;;20.70;49.58;98346.78;5072341;28;20566;-52
2023/03/13 16:42:23;;;;;;;1.27;0.40;;;;;;;20.65;49.39;98346.84;5072109;28;20162;-54
2023/03/13 16:44:48;;;;;;;0.40;0.40;;;;;;;20.58;51.43;98347.97;5071047;28;20383;-53
2023/03/13 16:47:27;;;;;;;0.40;0.38;;;;;;;20.52;52.80;98329.38;5072206;28;20048;-53
2023/03/13 16:49:52;;;;;;;1.83;0.32;;;;;;;20.44;53.62;98324.53;5072269;28;20032;-61
2023/03/13 16:52:18;;;;;;;0.47;0.38;;;;;;;20.41;53.88;98328.63;5071934;28;20045;-62
2023/03/13 16:54:44;;;;;;;0.73;0.45;;;;;;;20.30;54.21;98327.91;5071953;28;20040;-61
2023/03/13 16:57:12;;;;;;;0.85;0.40;;;;;;;20.29;54.71;98331.69;5072088;28;20045;-62
2023/03/13 16:59:37;;;;;;;0.45;0.40;;;;;;;20.23;55.42;98330.13;5072047;28;20037;-61
2023/03/13 17:02:03;;;;;;;0.75;0.52;;;;;;;20.19;56.07;98328.25;5072005;28;20036;-61
2023/03/13 17:04:28;;;;;;;0.90;0.65;;;;;;;20.09;56.88;98328.34;5071748;28;20047;-63
2023/03/13 17:06:53;;;;;;;2.45;0.52;;;;;;;19.99;57.47;98340.81;5072065;28;20056;-63
2023/03/13 17:09:19;;;;;;;0.73;0.30;;;;;;;19.89;59.40;98340.91;5071958;28;20041;-64
2023/03/13 17:11:44;;;;;;;0.77;0.40;;;;;;;19.61;64.12;98360.50;5072236;28;20408;-63
2023/03/13 17:14:12;;;;;;;1.20;0.60;;;;;;;19.34;65.32;98360.84;5071721;28;20040;-64
2023/03/13 17:16:42;;;;;;;0.68;0.50;;;;;;;19.12;60.33;98342.31;5071843;28;20417;-62
2023/03/13 17:19:15;;;;;;;0.75;0.40;;;;;;;18.85;61.33;98348.84;5071930;28;20032;-63